Time;durP1;ratioP1;P1;durP2;ratioP2;P2;SDS_P1;SDS_P2;PMS_P1;PMS_P2;Temp;Humidity;BMP_temperature;BMP_pressure;BME280_temperature;BME280_humidity;BME280_pressure;Samples;Min_cycle;Max_cycle;Signal;HPM_P1;HPM_P2
2022/05/21 00:02:27;;;;;;;18.02;8.25;;;21.40;82.40;;;;;;5245181;28;20047;-71
2022/05/21 00:05:00;;;;;;;14.98;7.82;;;21.40;83.20;;;;;;5241760;28;20032;-72
2022/05/21 00:07:34;;;;;;;12.85;7.80;;;21.30;84.90;;;;;;5225881;28;20940;-71
2022/05/21 00:10:12;;;;;;;15.07;8.18;;;21.30;86.10;;;;;;5222294;28;20040;-71
2022/05/21 00:12:45;;;;;;;13.52;8.50;;;21.20;89.10;;;;;;5246273;28;20052;-71
2022/05/21 00:15:21;;;;;;;14.73;7.57;;;21.20;90.70;;;;;;5239791;28;20044;-71
2022/05/21 00:17:54;;;;;;;18.90;8.45;;;21.20;92.10;;;;;;5237725;28;20051;-72
2022/05/21 00:23:19;;;;;;;13.82;7.45;;;21.10;93.50;;;;;;5239379;28;20637;-70
2022/05/21 00:25:58;;;;;;;13.53;7.50;;;21.10;94.20;;;;;;5240413;28;20051;-70
2022/05/21 00:28:31;;;;;;;12.75;7.07;;;21.10;95.80;;;;;;5242774;28;20048;-72
2022/05/21 00:31:06;;;;;;;13.95;6.82;;;21.00;95.80;;;;;;5240421;28;20055;-72
2022/05/21 00:33:40;;;;;;;16.45;7.32;;;20.80;96.10;;;;;;5241548;28;20399;-71
2022/05/21 00:36:13;;;;;;;10.80;6.05;;;20.80;96.30;;;;;;5237312;28;21245;-71
2022/05/21 00:38:46;;;;;;;13.32;7.38;;;20.80;94.90;;;;;;5240559;28;20455;-71
2022/05/21 00:41:19;;;;;;;10.98;6.63;;;20.70;96.40;;;;;;5245895;28;20044;-70
2022/05/21 00:43:54;;;;;;;16.00;7.67;;;20.60;97.70;;;;;;5241058;28;20739;-71
2022/05/21 00:46:33;;;;;;;12.98;7.45;;;20.50;98.30;;;;;;5224448;28;20130;-71
2022/05/21 00:49:22;;;;;;;14.13;6.95;;;20.50;99.90;;;;;;5224630;28;20044;-71
2022/05/21 00:52:03;;;;;;;14.10;6.88;;;20.50;99.70;;;;;;5220369;28;20052;-70
2022/05/21 00:54:40;;;;;;;14.20;6.82;;;20.40;99.90;;;;;;5229508;28;20059;-71
2022/05/21 00:57:23;;;;;;;11.43;6.72;;;20.30;99.90;;;;;;5225359;28;20059;-73
2022/05/21 01:00:10;;;;;;;10.87;6.90;;;20.30;99.90;;;;;;5235189;28;20468;-71
2022/05/21 01:02:47;;;;;;;11.70;7.13;;;20.30;99.90;;;;;;5239445;28;20047;-72
2022/05/21 01:05:23;;;;;;;13.93;6.93;;;20.20;99.90;;;;;;5242911;28;20055;-72
2022/05/21 01:07:58;;;;;;;12.00;6.93;;;20.20;99.90;;;;;;5235144;28;20403;-70
2022/05/21 01:10:36;;;;;;;10.82;6.78;;;20.20;99.90;;;;;;5226248;28;20500;-72
2022/05/21 01:13:12;;;;;;;9.00;6.43;;;20.10;99.90;;;;;;5240250;28;20792;-71
2022/05/21 01:15:49;;;;;;;9.40;6.38;;;20.10;99.90;;;;;;5223005;28;20459;-70
2022/05/21 01:18:22;;;;;;;10.68;6.32;;;20.10;99.90;;;;;;5241871;28;20905;-70
2022/05/21 01:20:56;;;;;;;;;;;20.00;99.90;;;;;;5241488;28;20048;-70
2022/05/21 01:23:28;;;;;;;11.93;6.30;;;19.90;99.90;;;;;;5234139;28;20448;-70
2022/05/21 01:26:04;;;;;;;12.55;6.57;;;19.80;99.90;;;;;;5243386;28;20043;-71
2022/05/21 01:28:38;;;;;;;12.18;6.07;;;19.80;99.90;;;;;;5226083;28;20516;-70
2022/05/21 01:31:10;;;;;;;;;;;19.80;99.90;;;;;;5228584;28;20044;-70
2022/05/21 01:33:47;;;;;;;10.10;5.63;;;19.70;99.90;;;;;;5244145;28;20501;-71
2022/05/21 01:36:19;;;;;;;10.50;6.10;;;19.70;99.90;;;;;;5243824;28;20514;-70
2022/05/21 01:38:52;;;;;;;16.95;7.57;;;19.70;99.90;;;;;;5240564;28;20051;-71
2022/05/21 01:41:24;;;;;;;22.60;8.13;;;19.60;99.90;;;;;;5241854;28;20237;-72
2022/05/21 01:46:48;;;;;;;13.13;6.55;;;19.00;99.90;;;;;;5251066;28;20095;-73
2022/05/21 01:49:21;;;;;;;11.50;7.72;;;18.50;99.90;;;;;;5244362;28;20060;-73
2022/05/21 01:51:54;;;;;;;21.70;9.00;;;18.40;99.90;;;;;;5244743;28;20055;-72
2022/05/21 01:54:27;;;;;;;;;;;18.30;99.90;;;;;;5250150;28;20067;-73
2022/05/21 01:57:00;;;;;;;15.57;7.93;;;18.00;99.90;;;;;;5249504;28;19931;-73
2022/05/21 01:59:33;;;;;;;12.57;8.00;;;18.00;99.90;;;;;;5230075;28;20591;-75
2022/05/21 02:02:06;;;;;;;12.23;8.00;;;18.00;99.90;;;;;;5231532;28;20044;-74
2022/05/21 02:04:39;;;;;;;14.73;8.50;;;17.90;99.90;;;;;;5246068;28;20040;-73
2022/05/21 02:07:11;;;;;;;12.27;7.32;;;17.80;99.90;;;;;;5241964;28;20051;-73
2022/05/21 02:09:44;;;;;;;15.80;9.55;;;17.80;99.90;;;;;;5246089;28;20048;-74
2022/05/21 02:12:16;;;;;;;15.15;8.80;;;17.70;99.90;;;;;;5225004;28;20048;-74
2022/05/21 02:14:49;;;;;;;16.08;8.65;;;17.70;99.90;;;;;;5252731;28;20114;-74
2022/05/21 02:17:22;;;;;;;12.52;7.50;;;17.60;99.90;;;;;;5226820;28;20056;-74
2022/05/21 02:19:56;;;;;;;13.80;8.82;;;17.60;99.90;;;;;;5233053;28;20471;-74
2022/05/21 02:22:29;;;;;;;13.85;9.35;;;17.60;99.90;;;;;;5242116;28;20530;-73
2022/05/21 02:25:03;;;;;;;16.65;9.75;;;17.60;99.90;;;;;;5231389;28;20041;-74
2022/05/21 02:27:36;;;;;;;14.93;9.18;;;17.60;99.90;;;;;;5231214;28;20055;-74
2022/05/21 02:30:10;;;;;;;14.97;10.10;;;17.50;99.90;;;;;;5232717;28;20039;-71
2022/05/21 02:32:42;;;;;;;14.75;9.70;;;17.50;99.90;;;;;;5238578;28;20504;-72
2022/05/21 02:35:15;;;;;;;13.73;9.90;;;17.50;99.90;;;;;;5239644;28;20060;-72
2022/05/21 02:40:40;;;;;;;17.73;10.40;;;17.60;99.90;;;;;;5193936;28;20420;-71
2022/05/21 02:43:13;;;;;;;17.75;9.63;;;17.70;99.90;;;;;;5229940;28;20041;-73
2022/05/21 02:45:46;;;;;;;13.20;9.07;;;17.70;99.90;;;;;;5231683;28;20696;-72
2022/05/21 02:48:18;;;;;;;16.85;10.00;;;17.80;99.90;;;;;;5229226;28;20055;-74
2022/05/21 02:50:51;;;;;;;19.08;10.75;;;17.70;99.90;;;;;;5204019;28;20052;-73
2022/05/21 02:53:23;;;;;;;16.42;11.50;;;17.70;99.90;;;;;;5220781;28;20067;-72
2022/05/21 02:56:01;;;;;;;14.27;8.53;;;17.70;99.90;;;;;;5236067;28;20032;-73
2022/05/21 02:58:34;;;;;;;14.57;10.70;;;17.70;99.90;;;;;;5227060;28;21324;-72
2022/05/21 03:01:07;;;;;;;13.85;8.80;;;17.70;99.90;;;;;;5233887;28;20617;-74
2022/05/21 03:03:39;;;;;;;17.23;10.40;;;17.70;99.90;;;;;;5243379;28;20049;-73
2022/05/21 03:06:12;;;;;;;14.32;9.55;;;17.70;99.90;;;;;;5238275;28;20054;-73
2022/05/21 03:11:37;;;;;;;16.83;10.25;;;17.60;99.90;;;;;;5252435;28;20048;-71
2022/05/21 03:14:09;;;;;;;18.45;11.00;;;17.50;99.90;;;;;;5242370;28;20040;-72
2022/05/21 03:16:42;;;;;;;17.08;9.93;;;17.50;99.90;;;;;;5241073;28;20052;-73
2022/05/21 03:19:15;;;;;;;15.20;10.90;;;17.40;99.90;;;;;;5243247;28;20048;-72
2022/05/21 03:21:47;;;;;;;19.67;10.63;;;17.40;99.90;;;;;;5245159;28;20565;-72
2022/05/21 03:24:20;;;;;;;17.37;11.20;;;17.40;99.90;;;;;;5225932;28;20302;-73
2022/05/21 03:26:53;;;;;;;17.88;11.20;;;17.40;99.90;;;;;;5237670;28;20575;-72
2022/05/21 03:29:26;;;;;;;14.45;8.52;;;17.40;99.90;;;;;;5243033;28;20067;-73
2022/05/21 03:31:58;;;;;;;13.73;7.27;;;17.30;99.90;;;;;;5248908;28;20055;-73
2022/05/21 03:34:34;;;;;;;14.23;8.90;;;17.30;99.90;;;;;;5241926;28;20305;-73
2022/05/21 03:37:07;;;;;;;17.98;8.93;;;17.30;99.90;;;;;;5236061;28;20056;-73
2022/05/21 03:39:39;;;;;;;13.63;8.27;;;17.30;99.90;;;;;;5227074;28;20055;-72
2022/05/21 03:42:12;;;;;;;13.95;8.35;;;17.20;99.90;;;;;;5244514;28;20051;-73
2022/05/21 03:44:46;;;;;;;13.55;8.30;;;17.20;99.90;;;;;;5246468;28;20044;-73
2022/05/21 03:47:18;;;;;;;13.38;9.32;;;17.20;99.90;;;;;;5238258;28;20124;-73
2022/05/21 03:49:50;;;;;;;19.50;9.25;;;17.10;99.90;;;;;;5238756;28;20091;-73
2022/05/21 03:52:23;;;;;;;11.52;8.65;;;17.20;99.90;;;;;;5249922;28;20107;-73
2022/05/21 03:54:55;;;;;;;15.68;8.90;;;17.10;99.90;;;;;;5246008;28;20059;-73
2022/05/21 03:57:28;;;;;;;14.00;9.27;;;17.10;99.90;;;;;;5244730;28;20055;-71
2022/05/21 04:00:01;;;;;;;15.87;9.33;;;17.10;99.90;;;;;;5245995;28;20044;-70
2022/05/21 04:02:44;;;;;;;13.77;8.93;;;17.00;99.90;;;;;;5226461;28;20051;-72
2022/05/21 04:05:17;;;;;;;15.73;8.25;;;17.00;99.90;;;;;;5241407;28;20044;-73
2022/05/21 04:07:49;;;;;;;13.52;9.02;;;17.10;99.90;;;;;;5242248;28;20056;-72
2022/05/21 04:10:22;;;;;;;14.80;8.68;;;17.00;99.90;;;;;;5219484;28;20408;-72
2022/05/21 04:12:55;;;;;;;14.55;9.63;;;17.00;99.90;;;;;;5249060;28;20055;-73
2022/05/21 04:15:28;;;;;;;11.77;8.52;;;17.10;99.90;;;;;;5253254;28;20249;-72
2022/05/21 04:18:01;;;;;;;12.85;8.35;;;17.00;99.90;;;;;;5234050;28;20044;-72
2022/05/21 04:20:34;;;;;;;13.45;8.57;;;17.00;99.90;;;;;;5248550;28;20036;-73
2022/05/21 04:23:07;;;;;;;13.75;9.15;;;17.10;99.90;;;;;;5244401;28;20071;-72
2022/05/21 04:25:39;;;;;;;15.13;8.45;;;17.10;99.90;;;;;;5238722;28;20047;-73
2022/05/21 04:28:12;;;;;;;10.52;7.45;;;17.10;99.90;;;;;;5243320;28;20043;-72
2022/05/21 04:30:45;;;;;;;12.50;9.50;;;17.10;99.90;;;;;;5245688;28;20040;-71
2022/05/21 04:33:17;;;;;;;14.32;8.60;;;17.10;99.90;;;;;;5242736;28;20321;-71
2022/05/21 04:38:42;;;;;;;18.33;8.88;;;17.20;99.90;;;;;;5242281;28;20048;-71
2022/05/21 04:41:15;;;;;;;13.27;8.52;;;17.20;99.90;;;;;;5240625;28;20044;-72
2022/05/21 04:43:48;;;;;;;13.85;10.35;;;17.20;99.90;;;;;;5240930;28;20580;-72
2022/05/21 04:46:24;;;;;;;11.57;7.70;;;17.20;99.90;;;;;;5240446;28;20044;-73
2022/05/21 04:48:58;;;;;;;14.73;8.15;;;17.10;99.90;;;;;;5229981;28;20045;-72
2022/05/21 04:51:38;;;;;;;11.15;7.50;;;17.10;99.90;;;;;;5239488;28;20060;-73
2022/05/21 04:54:11;;;;;;;12.13;7.90;;;17.20;99.90;;;;;;5244810;28;20044;-74
2022/05/21 04:56:43;;;;;;;13.55;7.43;;;17.20;99.90;;;;;;5244926;28;20043;-73
2022/05/21 04:59:15;;;;;;;10.50;7.30;;;17.30;99.90;;;;;;5240885;28;20040;-73
2022/05/21 05:01:48;;;;;;;13.27;6.63;;;17.40;99.90;;;;;;5222255;28;20053;-72
2022/05/21 05:04:21;;;;;;;15.53;7.50;;;17.40;99.90;;;;;;5253643;28;20044;-71
2022/05/21 05:06:53;;;;;;;10.75;6.60;;;17.50;99.90;;;;;;5246369;28;20697;-74
2022/05/21 05:09:27;;;;;;;8.48;6.90;;;17.50;99.90;;;;;;5228602;28;20392;-73
2022/05/21 05:12:00;;;;;;;10.35;6.57;;;17.40;99.90;;;;;;5250721;28;20051;-73
2022/05/21 05:14:32;;;;;;;11.82;6.35;;;17.50;99.90;;;;;;5250487;28;20059;-73
2022/05/21 05:17:06;;;;;;;7.72;5.90;;;17.40;99.90;;;;;;5242554;28;20059;-74
2022/05/21 05:19:39;;;;;;;8.85;6.13;;;17.50;99.90;;;;;;5251299;28;20073;-73
2022/05/21 05:22:13;;;;;;;8.50;5.53;;;17.50;99.90;;;;;;5253104;28;20040;-72
2022/05/21 05:24:45;;;;;;;7.70;5.20;;;17.50;99.90;;;;;;5252031;28;20036;-73
2022/05/21 05:27:18;;;;;;;9.23;5.53;;;17.50;99.90;;;;;;5248570;28;20044;-73
2022/05/21 05:29:51;;;;;;;9.15;5.68;;;17.50;99.90;;;;;;5249799;28;20056;-72
2022/05/21 05:32:23;;;;;;;5.88;4.88;;;17.50;99.90;;;;;;5243092;28;20879;-72
2022/05/21 05:34:55;;;;;;;11.20;4.85;;;17.50;99.90;;;;;;5236967;28;20051;-72
2022/05/21 05:37:28;;;;;;;7.45;4.75;;;17.60;99.90;;;;;;5248330;28;20052;-73
2022/05/21 05:40:01;;;;;;;6.28;4.10;;;17.70;99.90;;;;;;5245114;28;20052;-72
2022/05/21 05:42:37;;;;;;;9.57;4.47;;;17.70;99.90;;;;;;5237811;28;20059;-73
2022/05/21 05:45:13;;;;;;;6.57;4.07;;;17.70;99.90;;;;;;5231325;28;20550;-73
2022/05/21 05:47:45;;;;;;;5.90;4.07;;;17.80;99.90;;;;;;5237795;28;20048;-72
2022/05/21 05:50:18;;;;;;;11.10;4.25;;;17.80;99.90;;;;;;5239282;28;20037;-73
2022/05/21 05:52:51;;;;;;;5.68;3.85;;;17.90;99.90;;;;;;5239670;28;20052;-73
2022/05/21 05:55:24;;;;;;;7.32;3.85;;;18.00;99.90;;;;;;5237322;28;20056;-72
2022/05/21 05:57:57;;;;;;;5.97;3.97;;;18.10;99.90;;;;;;5222253;28;20313;-72
2022/05/21 06:00:30;;;;;;;9.30;4.20;;;18.10;99.90;;;;;;5244191;28;20044;-72
2022/05/21 06:03:02;;;;;;;5.07;4.13;;;18.20;99.90;;;;;;5222822;28;20067;-72
2022/05/21 06:05:35;;;;;;;8.25;4.72;;;18.40;99.90;;;;;;5217901;28;20033;-72
2022/05/21 06:08:08;;;;;;;5.85;3.50;;;18.60;99.90;;;;;;5233719;28;20059;-71
2022/05/21 06:10:45;;;;;;;5.93;3.97;;;18.60;99.90;;;;;;5226398;28;20044;-72
2022/05/21 06:13:18;;;;;;;5.97;4.05;;;18.60;99.90;;;;;;5238211;28;20059;-73
2022/05/21 06:15:50;;;;;;;7.32;4.20;;;18.60;99.80;;;;;;5233515;28;20051;-72
2022/05/21 06:18:23;;;;;;;8.00;4.10;;;18.60;97.50;;;;;;5218297;28;20049;-72
2022/05/21 06:20:59;;;;;;;5.35;4.13;;;18.40;98.00;;;;;;5229347;28;20479;-72
2022/05/21 06:23:32;;;;;;;5.50;4.10;;;18.40;98.80;;;;;;5218005;28;20055;-73
2022/05/21 06:26:06;;;;;;;7.63;4.13;;;18.30;99.90;;;;;;5247821;28;20032;-72
2022/05/21 06:28:38;;;;;;;9.60;4.20;;;18.50;99.90;;;;;;5230124;28;20040;-73
2022/05/21 06:31:11;;;;;;;9.02;4.32;;;18.40;99.90;;;;;;5235217;28;20036;-72
2022/05/21 06:33:43;;;;;;;6.67;3.80;;;18.40;99.90;;;;;;5242138;28;20043;-71
2022/05/21 06:36:16;;;;;;;5.53;3.97;;;18.30;99.50;;;;;;5239029;28;20374;-72
2022/05/21 06:38:49;;;;;;;4.57;3.57;;;18.30;99.40;;;;;;5249630;28;20504;-72
2022/05/21 06:41:21;;;;;;;8.43;4.00;;;18.40;98.90;;;;;;5238700;28;20294;-72
2022/05/21 06:43:54;;;;;;;5.45;3.97;;;18.70;99.00;;;;;;5234194;28;20582;-71
2022/05/21 06:46:27;;;;;;;5.32;3.72;;;18.70;98.30;;;;;;5230783;28;20495;-72
2022/05/21 06:48:59;;;;;;;7.07;3.97;;;18.80;97.80;;;;;;5236275;28;20040;-72
2022/05/21 06:51:32;;;;;;;9.32;3.47;;;18.90;98.00;;;;;;5236440;28;20048;-72
2022/05/21 06:54:04;;;;;;;5.17;3.50;;;19.00;94.90;;;;;;5240736;28;20044;-71
2022/05/21 06:56:40;;;;;;;5.88;3.63;;;19.10;94.40;;;;;;5241670;28;20302;-71
2022/05/21 06:59:13;;;;;;;4.43;2.80;;;19.40;93.70;;;;;;5222392;28;20056;-72
2022/05/21 07:01:46;;;;;;;5.03;3.38;;;19.30;91.90;;;;;;5221424;28;20040;-72
2022/05/21 07:07:32;;;;;;;4.80;3.35;;;19.50;91.80;;;;;;5199894;28;20489;-72
2022/05/21 07:10:08;;;;;;;6.05;3.20;;;19.60;87.30;;;;;;5241044;28;20419;-73
2022/05/21 07:12:40;;;;;;;4.70;3.75;;;19.50;88.90;;;;;;5242711;28;20055;-71
2022/05/21 07:15:13;;;;;;;8.70;3.85;;;19.30;90.00;;;;;;5212862;28;20060;-70
2022/05/21 07:17:46;;;;;;;6.75;3.45;;;19.10;90.90;;;;;;5239775;28;20059;-69
2022/05/21 07:20:21;;;;;;;6.97;3.70;;;19.10;90.10;;;;;;5230779;28;20040;-70
2022/05/21 07:22:54;;;;;;;4.78;3.10;;;19.30;89.10;;;;;;5239199;28;20302;-70
2022/05/21 07:25:30;;;;;;;2.80;2.47;;;19.40;87.10;;;;;;5241516;28;20047;-70
2022/05/21 07:28:03;;;;;;;3.70;2.40;;;19.60;82.80;;;;;;5249234;28;20052;-73
2022/05/21 07:30:36;;;;;;;4.75;2.38;;;19.80;79.40;;;;;;5229531;28;20505;-72
2022/05/21 07:33:11;;;;;;;4.28;2.80;;;20.00;78.60;;;;;;5238786;28;20054;-71
2022/05/21 07:35:44;;;;;;;6.82;2.80;;;19.90;78.30;;;;;;5223035;28;20043;-70
2022/05/21 07:38:17;;;;;;;4.57;2.75;;;20.10;79.00;;;;;;5227091;28;20056;-72
2022/05/21 07:40:52;;;;;;;4.47;2.70;;;20.30;77.70;;;;;;5221678;28;20148;-71
2022/05/21 07:43:27;;;;;;;2.85;2.55;;;20.20;75.90;;;;;;5215031;28;20051;-71
2022/05/21 07:46:01;;;;;;;4.10;2.60;;;20.20;75.40;;;;;;5236595;28;20041;-71
2022/05/21 07:48:34;;;;;;;4.15;2.85;;;20.20;75.00;;;;;;5229978;28;21015;-70
2022/05/21 07:51:11;;;;;;;3.20;2.30;;;20.30;75.00;;;;;;5230846;28;20044;-71
2022/05/21 07:53:44;;;;;;;5.07;2.75;;;20.20;76.00;;;;;;5235447;28;20463;-71
2022/05/21 07:56:21;;;;;;;3.35;2.40;;;20.30;75.80;;;;;;5225984;28;20048;-70
2022/05/21 07:58:54;;;;;;;4.20;2.92;;;20.30;76.20;;;;;;5239135;28;20044;-70
2022/05/21 08:01:27;;;;;;;4.80;2.80;;;20.40;76.30;;;;;;5233498;28;20553;-71
2022/05/21 08:03:59;;;;;;;3.33;3.03;;;20.20;75.30;;;;;;5231939;28;20053;-70
2022/05/21 08:06:33;;;;;;;3.60;2.85;;;20.30;75.70;;;;;;5224635;28;20048;-71
2022/05/21 08:09:05;;;;;;;4.35;2.65;;;20.50;77.10;;;;;;5233668;28;20408;-70
2022/05/21 08:11:38;;;;;;;5.43;2.67;;;20.40;75.70;;;;;;5220484;28;20055;-71
2022/05/21 08:14:10;;;;;;;7.37;3.40;;;20.50;76.50;;;;;;5225464;28;20526;-71
2022/05/21 08:16:43;;;;;;;4.90;3.15;;;20.50;77.40;;;;;;5224289;28;20313;-72
2022/05/21 08:19:16;;;;;;;5.47;3.22;;;20.30;77.20;;;;;;5236386;28;20587;-71
2022/05/21 08:21:49;;;;;;;6.07;3.03;;;20.00;78.10;;;;;;5249727;28;20388;-71
2022/05/21 08:27:12;;;;;;;6.43;3.03;;;20.20;77.50;;;;;;5235360;28;20044;-71
2022/05/21 08:29:46;;;;;;;4.97;2.40;;;20.30;77.50;;;;;;5244943;28;20058;-71
2022/05/21 08:32:19;;;;;;;3.13;2.08;;;20.50;76.60;;;;;;5219597;28;20071;-72
2022/05/21 08:34:52;;;;;;;2.55;2.35;;;20.70;71.60;;;;;;5240066;28;20044;-71
2022/05/21 08:37:27;;;;;;;4.03;2.65;;;20.70;72.00;;;;;;5226480;28;20056;-72
2022/05/21 08:40:00;;;;;;;5.05;2.13;;;20.70;73.50;;;;;;5242020;28;20043;-72
2022/05/21 08:42:39;;;;;;;6.07;2.10;;;20.70;69.80;;;;;;5220186;28;20789;-73
2022/05/21 08:45:19;;;;;;;5.72;2.20;;;20.50;67.50;;;;;;5230597;28;20538;-70
2022/05/21 08:48:03;;;;;;;2.80;1.90;;;20.50;67.90;;;;;;5232755;28;20504;-73
2022/05/21 08:50:44;;;;;;;3.80;2.00;;;20.60;67.60;;;;;;5201171;28;20044;-72
2022/05/21 08:53:20;;;;;;;2.95;1.80;;;20.70;69.60;;;;;;5244285;28;20411;-73
2022/05/21 08:55:56;;;;;;;3.47;1.77;;;20.90;68.80;;;;;;5245676;28;20055;-72
2022/05/21 08:58:46;;;;;;;2.42;1.80;;;21.10;68.60;;;;;;5244891;28;20063;-72
2022/05/21 09:01:21;;;;;;;2.30;1.70;;;21.30;66.50;;;;;;5232971;28;20053;-72
2022/05/21 09:03:56;;;;;;;3.13;1.70;;;21.30;66.80;;;;;;5248332;28;20055;-72
2022/05/21 09:06:28;;;;;;;2.30;1.67;;;21.40;66.20;;;;;;5250934;28;20048;-71
2022/05/21 09:09:10;;;;;;;3.17;2.28;;;21.60;64.30;;;;;;5242231;28;20043;-73
2022/05/21 09:11:49;;;;;;;1.80;1.45;;;21.70;62.10;;;;;;5236501;28;20063;-72
2022/05/21 09:14:34;;;;;;;4.05;1.48;;;21.50;62.00;;;;;;5247927;28;20055;-73
2022/05/21 09:17:13;;;;;;;3.25;1.95;;;21.50;61.70;;;;;;5244703;28;20036;-75
2022/05/21 09:19:52;;;;;;;1.73;1.38;;;21.60;63.20;;;;;;5248171;28;20052;-74
2022/05/21 09:22:26;;;;;;;4.32;1.80;;;21.60;61.00;;;;;;5231417;28;20052;-73
2022/05/21 09:25:23;;;;;;;1.50;1.13;;;21.70;60.00;;;;;;5237865;28;20138;-71
2022/05/21 09:28:08;;;;;;;4.05;1.35;;;21.70;59.10;;;;;;5234294;28;20044;-74
2022/05/21 09:30:53;;;;;;;2.28;1.52;;;21.50;58.70;;;;;;5217203;28;21788;-74
2022/05/21 09:33:35;;;;;;;2.83;1.38;;;21.50;59.30;;;;;;5245934;28;20054;-74
2022/05/21 09:36:13;;;;;;;3.00;1.35;;;21.50;60.30;;;;;;5242779;28;20059;-75
2022/05/21 09:38:52;;;;;;;3.33;1.40;;;21.50;60.20;;;;;;5215686;28;20052;-75
2022/05/21 09:41:32;;;;;;;4.97;1.48;;;21.60;59.40;;;;;;5226083;28;20420;-73
2022/05/21 09:47:14;;;;;;;2.55;1.63;;;21.80;60.80;;;;;;5226299;28;20040;-73
2022/05/21 09:50:13;;;;;;;4.63;1.65;;;21.70;61.90;;;;;;5217306;28;20044;-73
2022/05/21 09:52:49;;;;;;;4.53;2.47;;;21.70;60.20;;;;;;5230027;28;20408;-73
2022/05/21 09:55:33;;;;;;;2.70;1.80;;;21.80;62.30;;;;;;5221506;28;20853;-72
2022/05/21 09:58:10;;;;;;;2.35;1.90;;;21.70;61.90;;;;;;5243337;28;20055;-73
2022/05/21 10:00:53;;;;;;;2.88;1.50;;;21.60;62.00;;;;;;5224800;28;20052;-72
2022/05/21 10:03:45;;;;;;;3.65;2.03;;;21.60;59.80;;;;;;5238014;28;20126;-74
2022/05/21 10:06:29;;;;;;;2.25;1.80;;;21.50;61.40;;;;;;5240584;28;20043;-73
2022/05/21 10:12:25;;;;;;;3.53;1.33;;;22.00;59.30;;;;;;5213182;28;20048;-74
2022/05/21 10:15:39;;;;;;;1.70;1.30;;;21.90;58.60;;;;;;5236614;28;20056;-73
2022/05/21 10:18:37;;;;;;;3.15;1.30;;;22.00;57.40;;;;;;5234116;28;20052;-71
2022/05/21 10:21:19;;;;;;;4.50;1.30;;;22.00;56.90;;;;;;5240844;28;20044;-73
2022/05/21 10:24:00;;;;;;;1.90;1.15;;;22.40;56.60;;;;;;5219733;28;20053;-72
2022/05/21 10:26:40;;;;;;;2.75;1.60;;;22.60;56.70;;;;;;5212902;28;21271;-73
2022/05/21 10:29:22;;;;;;;3.15;1.50;;;22.80;56.70;;;;;;5228529;28;20037;-71
2022/05/21 10:32:34;;;;;;;1.98;1.20;;;23.00;56.50;;;;;;5221495;28;20480;-72
2022/05/21 10:35:41;;;;;;;1.90;1.33;;;23.20;55.60;;;;;;5241747;28;21807;-73
2022/05/21 10:38:36;;;;;;;2.03;1.00;;;23.40;52.00;;;;;;5222871;28;20063;-72
2022/05/21 10:41:29;;;;;;;3.00;1.00;;;23.50;53.40;;;;;;5222798;28;20060;-73
2022/05/21 10:44:26;;;;;;;2.40;1.13;;;23.60;52.00;;;;;;5241608;28;20036;-72
2022/05/21 10:47:04;;;;;;;1.80;1.20;;;23.70;51.40;;;;;;5230890;28;20044;-71
2022/05/21 10:49:49;;;;;;;1.42;1.08;;;23.90;52.50;;;;;;5229401;28;20575;-74
2022/05/21 10:52:30;;;;;;;4.45;1.20;;;24.20;52.70;;;;;;5220837;28;20537;-73
2022/05/21 10:55:28;;;;;;;2.05;1.08;;;24.20;52.30;;;;;;5233967;28;20048;-73
2022/05/21 10:58:06;;;;;;;4.18;1.55;;;24.20;50.80;;;;;;5232624;28;20480;-70
2022/05/21 11:01:16;;;;;;;3.22;0.93;;;24.20;52.10;;;;;;5238644;28;20044;-73
2022/05/21 11:04:20;;;;;;;29.67;19.80;;;24.50;53.20;;;;;;5219224;28;20041;-71
2022/05/21 11:07:20;;;;;;;13.05;8.23;;;24.40;51.30;;;;;;5232361;28;20044;-70
2022/05/21 11:10:06;;;;;;;147.43;118.03;;;24.60;53.60;;;;;;5230971;28;20048;-71
2022/05/21 11:12:59;;;;;;;2.72;1.40;;;25.00;52.70;;;;;;5222794;28;20047;-71
2022/05/21 11:15:49;;;;;;;2.17;1.20;;;25.00;47.60;;;;;;5245328;28;20372;-71
2022/05/21 11:18:37;;;;;;;2.60;1.17;;;25.10;48.60;;;;;;5217811;28;20563;-71
2022/05/21 11:21:13;;;;;;;3.42;1.30;;;25.40;48.40;;;;;;5240475;28;20044;-72
2022/05/21 11:24:11;;;;;;;5.10;3.33;;;25.30;47.20;;;;;;5228477;28;20052;-71
2022/05/21 11:26:56;;;;;;;2.15;1.17;;;25.40;49.80;;;;;;5220835;28;20571;-72
2022/05/21 11:29:53;;;;;;;4.07;3.15;;;25.30;48.90;;;;;;5237929;28;20055;-71
2022/05/21 11:38:30;;;;;;;1.77;0.88;;;26.40;44.30;;;;;;5240600;28;20045;-72
2022/05/21 11:47:13;;;;;;;1.77;1.23;;;26.70;45.30;;;;;;5233305;28;20492;-72
2022/05/21 11:49:57;;;;;;;5.25;2.83;;;26.90;43.60;;;;;;5227847;28;20053;-72
2022/05/21 11:52:36;;;;;;;1.60;1.10;;;27.50;45.50;;;;;;5220681;28;20385;-71
2022/05/21 11:55:09;;;;;;;0.98;0.90;;;28.00;42.80;;;;;;5230549;28;20039;-73
2022/05/21 11:57:58;;;;;;;2.13;0.90;;;28.30;43.80;;;;;;5234862;28;20408;-72
2022/05/21 12:00:33;;;;;;;4.07;1.13;;;28.00;41.90;;;;;;5224383;28;20043;-72
2022/05/21 12:03:10;;;;;;;1.33;0.80;;;28.30;42.80;;;;;;5216850;28;20665;-72
2022/05/21 12:05:47;;;;;;;1.77;1.10;;;28.00;41.20;;;;;;5219062;28;20048;-73
2022/05/21 12:08:22;;;;;;;4.40;1.15;;;27.60;42.20;;;;;;5224033;28;20078;-72
2022/05/21 12:10:58;;;;;;;1.13;0.90;;;27.10;42.50;;;;;;5234503;28;20048;-72
2022/05/21 12:13:33;;;;;;;2.08;1.20;;;26.40;43.30;;;;;;5228934;28;20044;-72
2022/05/21 12:16:29;;;;;;;3.20;1.27;;;26.20;43.50;;;;;;5226875;28;20079;-73
2022/05/21 12:19:05;;;;;;;2.20;1.05;;;26.90;44.30;;;;;;5215357;28;20044;-73
2022/05/21 12:21:40;;;;;;;1.38;0.80;;;27.30;43.10;;;;;;5225022;28;20047;-72
2022/05/21 12:24:33;;;;;;;1.55;1.10;;;27.40;43.30;;;;;;5206766;28;21123;-72
2022/05/21 12:27:15;;;;;;;3.10;1.00;;;27.90;42.40;;;;;;5221161;28;20047;-75
2022/05/21 12:30:04;;;;;;;1.15;0.80;;;27.20;40.70;;;;;;5234210;28;20047;-73
2022/05/21 12:32:39;;;;;;;6.32;0.88;;;27.30;41.80;;;;;;5235769;28;20507;-73
2022/05/21 12:35:23;;;;;;;0.80;0.70;;;27.70;41.50;;;;;;5212185;28;20507;-74
2022/05/21 12:38:02;;;;;;;2.17;0.80;;;27.60;42.20;;;;;;5223176;28;20075;-71
2022/05/21 12:40:43;;;;;;;1.33;0.80;;;27.90;40.70;;;;;;5227670;28;20063;-70
2022/05/21 12:43:16;;;;;;;7.35;1.33;;;28.00;39.30;;;;;;5205969;28;20056;-73
2022/05/21 12:45:53;;;;;;;1.48;0.90;;;28.10;39.60;;;;;;5208793;28;21552;-72
2022/05/21 12:48:35;;;;;;;3.70;0.90;;;28.50;39.70;;;;;;5205086;28;20048;-73
2022/05/21 12:51:20;;;;;;;2.95;0.90;;;28.80;42.30;;;;;;5228193;28;20051;-73
2022/05/21 12:54:22;;;;;;;0.90;0.75;;;28.70;40.70;;;;;;5230927;28;20076;-72
2022/05/21 12:56:56;;;;;;;1.42;1.10;;;29.20;40.70;;;;;;5220113;28;20044;-73
2022/05/21 12:59:30;;;;;;;2.08;1.13;;;29.60;40.30;;;;;;5225582;28;20051;-70
2022/05/21 13:02:12;;;;;;;1.58;0.90;;;29.50;40.80;;;;;;5230379;28;20047;-71
2022/05/21 13:04:49;;;;;;;0.90;0.87;;;29.10;40.60;;;;;;5223202;28;20055;-72
2022/05/21 13:07:31;;;;;;;1.73;1.08;;;29.00;40.60;;;;;;5228562;28;20048;-73
2022/05/21 13:10:16;;;;;;;3.05;1.10;;;28.80;39.80;;;;;;5216573;28;20048;-71
2022/05/21 13:13:06;;;;;;;4.20;0.90;;;29.30;40.40;;;;;;5224569;28;20047;-75
2022/05/21 13:15:42;;;;;;;4.55;1.48;;;29.40;41.00;;;;;;5225853;28;20044;-71
2022/05/21 13:18:34;;;;;;;2.97;0.90;;;29.20;40.00;;;;;;5217102;28;20059;-73
2022/05/21 13:21:20;;;;;;;1.08;0.80;;;29.40;38.80;;;;;;5208541;28;20053;-73
2022/05/21 13:24:04;;;;;;;1.60;0.90;;;29.70;39.70;;;;;;5223795;28;20055;-73
2022/05/21 13:26:39;;;;;;;0.80;0.80;;;29.40;39.40;;;;;;5215176;28;20167;-74
2022/05/21 13:29:25;;;;;;;1.05;0.90;;;29.50;41.30;;;;;;5212294;28;20071;-74
2022/05/21 13:32:16;;;;;;;3.53;1.10;;;29.70;39.40;;;;;;5212708;28;20043;-74
2022/05/21 13:34:49;;;;;;;1.40;0.90;;;29.50;40.10;;;;;;5226932;28;20056;-74
2022/05/21 13:37:31;;;;;;;1.73;1.05;;;29.60;41.00;;;;;;5220846;28;20048;-73
2022/05/21 13:40:26;;;;;;;1.98;0.90;;;29.50;39.80;;;;;;5206433;28;20055;-74
2022/05/21 13:43:09;;;;;;;1.30;0.90;;;29.50;40.80;;;;;;5217702;28;20359;-72
2022/05/21 13:45:53;;;;;;;2.55;1.00;;;29.60;39.90;;;;;;5203067;28;20040;-72
2022/05/21 13:48:33;;;;;;;1.20;1.10;;;29.70;39.80;;;;;;5226385;28;20182;-73
2022/05/21 13:51:08;;;;;;;1.15;1.05;;;29.20;39.80;;;;;;5205100;28;20044;-72
2022/05/21 13:53:43;;;;;;;0.80;0.80;;;29.70;41.50;;;;;;5245706;28;20055;-73
2022/05/21 13:56:28;;;;;;;2.40;1.20;;;29.90;39.50;;;;;;5233318;28;20381;-73
2022/05/21 13:59:16;;;;;;;2.67;0.95;;;29.70;40.20;;;;;;5252591;28;20055;-74
2022/05/21 14:01:56;;;;;;;4.10;1.10;;;29.60;40.70;;;;;;5249281;28;20060;-72
2022/05/21 14:04:34;;;;;;;1.48;0.80;;;29.90;40.80;;;;;;5249880;28;20036;-73
2022/05/21 14:07:27;;;;;;;2.85;1.20;;;30.30;41.20;;;;;;5255185;28;20052;-74
2022/05/21 14:10:02;;;;;;;;;;;30.00;41.00;;;;;;5244036;28;20048;-72
2022/05/21 14:12:50;;;;;;;3.47;1.00;;;30.20;40.60;;;;;;5242878;28;19931;-72
2022/05/21 14:15:37;;;;;;;1.55;1.02;;;30.30;38.90;;;;;;5255235;28;20481;-72